Time;durP1;ratioP1;P1;durP2;ratioP2;P2;SDS_P1;SDS_P2;PMS_P1;PMS_P2;Temp;Humidity;BMP_temperature;BMP_pressure;BME280_temperature;BME280_humidity;BME280_pressure;Samples;Min_cycle;Max_cycle;Signal;HPM_P1;HPM_P2
2022/11/11 00:00:08;;;;;;;;;;;11.60;99.90;12.10;100919.00;;;;341696;28;86891;-88
2022/11/11 00:00:21;;;;;;;;;;;11.60;99.90;12.10;100920.00;;;;340520;28;89169;-88
2022/11/11 00:00:33;;;;;;;;;;;11.70;99.90;12.00;100920.00;;;;343036;28;86173;-88
2022/11/11 00:00:44;;;;;;;;;;;11.70;99.90;12.00;100915.00;;;;344421;28;88970;-88
2022/11/11 00:01:03;;;;;;;;;;;11.70;99.90;12.00;100907.00;;;;341596;28;86976;-88
2022/11/11 00:01:16;;;;;;;;;;;11.70;99.90;11.90;100913.00;;;;341806;28;89618;-88
2022/11/11 00:01:27;;;;;;;;;;;11.70;99.90;11.90;100916.00;;;;344089;28;87049;-88
2022/11/11 00:01:39;;;;;;;;;;;11.70;99.90;11.90;100920.00;;;;341840;28;90900;-89
2022/11/11 00:01:51;;;;;;;;;;;11.70;99.90;11.90;100912.00;;;;341657;28;87846;-88
2022/11/11 00:02:03;;;;;;;;;;;11.60;99.90;12.00;100915.00;;;;344442;28;88826;-89
2022/11/11 00:02:14;;;;;;;;;;;11.70;99.90;11.90;100911.00;;;;344122;28;87205;-88
2022/11/11 00:02:26;;;;;;;;;;;11.70;99.90;11.90;100917.00;;;;345771;28;89170;-88
2022/11/11 00:02:38;;;;;;;;;;;11.70;99.90;12.00;100907.00;;;;344262;28;88169;-88
2022/11/11 00:02:50;;;;;;;;;;;11.70;99.90;12.00;100916.00;;;;340489;28;90791;-88
2022/11/11 00:03:02;;;;;;;;;;;11.70;99.90;12.00;100908.00;;;;344222;28;86178;-88
2022/11/11 00:03:14;;;;;;;;;;;11.70;99.90;12.00;100916.00;;;;343090;28;89830;-88
2022/11/11 00:03:27;;;;;;;;;;;11.70;99.90;11.90;100913.00;;;;340401;28;86857;-87
2022/11/11 00:03:40;;;;;;;;;;;11.70;99.90;11.90;100912.00;;;;344602;28;89014;-88
2022/11/11 00:03:55;;;;;;;;;;;11.60;99.90;12.00;100914.00;;;;343271;28;86212;-88
2022/11/11 00:04:07;;;;;;;;;;;11.60;99.90;12.00;100904.00;;;;343327;28;88103;-87
2022/11/11 00:04:18;;;;;;;;;;;11.70;99.90;11.90;100901.00;;;;345542;28;87265;-88
2022/11/11 00:04:30;;;;;;;;;;;11.70;99.90;11.80;100906.00;;;;343181;28;87723;-89
2022/11/11 00:04:42;;;;;;;;;;;11.70;99.90;11.90;100909.00;;;;340505;28;86967;-89
2022/11/11 00:04:54;;;;;;;;;;;11.70;99.90;11.90;100911.00;;;;344575;28;90854;-89
2022/11/11 00:05:06;;;;;;;;;;;11.60;99.90;11.80;100914.00;;;;344722;28;86041;-88
2022/11/11 00:05:18;;;;;;;;;;;11.70;99.90;11.90;100910.00;;;;343498;28;87316;-88
2022/11/11 00:05:31;;;;;;;;;;;11.70;99.90;11.90;100914.00;;;;343163;28;86787;-88
2022/11/11 00:05:43;;;;;;;;;;;11.60;99.90;12.10;100917.00;;;;343346;28;89566;-88
2022/11/11 00:06:02;;;;;;;;;;;11.70;99.90;12.20;100909.00;;;;343272;28;86333;-88
2022/11/11 00:06:15;;;;;;;;;;;11.70;99.90;12.20;100911.00;;;;343560;28;88194;-88
2022/11/11 00:06:27;;;;;;;;;;;11.70;99.90;12.20;100902.00;;;;344736;28;86941;-88
2022/11/11 00:06:38;;;;;;;;;;;11.70;99.90;12.10;100905.00;;;;343729;28;87873;-88
2022/11/11 00:06:52;;;;;;;;;;;11.80;99.90;12.00;100904.00;;;;342295;28;86866;-88
2022/11/11 00:07:04;;;;;;;;;;;11.70;99.90;11.90;100905.00;;;;344929;28;88084;-89
2022/11/11 00:07:15;;;;;;;;;;;11.70;99.90;11.80;100896.00;;;;344732;28;86043;-88
2022/11/11 00:07:27;;;;;;;;;;;11.70;99.90;11.80;100909.00;;;;342121;28;87583;-88
2022/11/11 00:07:39;;;;;;;;;;;11.70;99.90;11.80;100905.00;;;;343551;28;86836;-88
2022/11/11 00:07:52;;;;;;;;;;;11.70;99.90;12.00;100907.00;;;;342474;28;88220;-88
2022/11/11 00:08:03;;;;;;;;;;;11.70;99.90;12.10;100902.00;;;;343338;28;87015;-88
2022/11/11 00:08:15;;;;;;;;;;;11.70;99.90;12.00;100905.00;;;;344644;28;90106;-89
2022/11/11 00:08:27;;;;;;;;;;;11.70;99.90;12.00;100904.00;;;;341772;28;86974;-88
2022/11/11 00:08:39;;;;;;;;;;;11.70;99.90;12.00;100909.00;;;;343496;28;87513;-88
2022/11/11 00:08:51;;;;;;;;;;;11.70;99.90;11.90;100906.00;;;;341816;28;86996;-88
2022/11/11 00:09:02;;;;;;;;;;;11.70;99.90;11.90;100915.00;;;;342128;28;87778;-88
2022/11/11 00:09:14;;;;;;;;;;;11.70;99.90;11.80;100905.00;;;;343009;28;88155;-88
2022/11/11 00:09:26;;;;;;;;;;;11.70;99.90;11.80;100903.00;;;;342016;28;90749;-88
2022/11/11 00:09:37;;;;;;;;;;;11.60;99.90;11.80;100902.00;;;;344101;28;88019;-88
2022/11/11 00:09:49;;;;;;;;;;;11.60;99.90;11.80;100902.00;;;;343177;28;89520;-88
2022/11/11 00:10:01;;;;;;;;;;;11.60;99.90;11.90;100897.00;;;;342926;28;87704;-88
2022/11/11 00:10:13;;;;;;;;;;;11.60;99.90;11.80;100897.00;;;;343481;28;88072;-88
2022/11/11 00:10:25;;;;;;;;;;;11.60;99.90;11.80;100900.00;;;;343023;28;87640;-87
2022/11/11 00:10:37;;;;;;;;;;;11.60;99.90;11.80;100908.00;;;;340351;28;90775;-88
2022/11/11 00:10:49;;;;;;;;;;;11.60;99.90;11.80;100906.00;;;;341763;28;88100;-87
2022/11/11 00:11:05;;;;;;;;;;;11.60;99.90;11.80;100904.00;;;;343443;28;89171;-89
2022/11/11 00:11:17;;;;;;;;;;;11.60;99.90;11.80;100909.00;;;;342015;28;86590;-89
2022/11/11 00:11:28;;;;;;;;;;;11.60;99.90;11.80;100909.00;;;;343887;28;90530;-89
2022/11/11 00:11:40;;;;;;;;;;;11.60;99.90;11.80;100899.00;;;;342164;28;86892;-88
2022/11/11 00:11:52;;;;;;;;;;;11.50;99.90;11.80;100899.00;;;;342792;28;86942;-88
2022/11/11 00:12:04;;;;;;;;;;;11.60;99.90;11.70;100900.00;;;;345882;28;87392;-88
2022/11/11 00:12:15;;;;;;;;;;;11.60;99.90;11.70;100901.00;;;;341007;28;88053;-87
2022/11/11 00:12:29;;;;;;;;;;;11.50;99.90;11.70;100898.00;;;;345059;28;86745;-88
2022/11/11 00:12:41;;;;;;;;;;;11.50;99.90;11.80;100905.00;;;;345429;28;91032;-88
2022/11/11 00:12:53;;;;;;;;;;;11.50;99.90;11.70;100903.00;;;;343398;28;87477;-88
2022/11/11 00:13:05;;;;;;;;;;;11.50;99.90;11.70;100896.00;;;;343722;28;87809;-88
2022/11/11 00:13:17;;;;;;;;;;;11.50;99.90;11.80;100902.00;;;;340766;28;86164;-89
2022/11/11 00:13:29;;;;;;;;;;;11.50;99.90;11.70;100913.00;;;;343176;28;89882;-87
2022/11/11 00:13:41;;;;;;;;;;;11.50;99.90;11.60;100903.00;;;;344425;28;87082;-88
2022/11/11 00:13:53;;;;;;;;;;;11.50;99.90;11.70;100899.00;;;;344840;28;88092;-89
2022/11/11 00:14:04;;;;;;;;;;;11.50;99.90;11.80;100899.00;;;;343096;28;87368;-88
2022/11/11 00:14:16;;;;;;;;;;;11.50;99.90;11.80;100906.00;;;;341901;28;88165;-89
2022/11/11 00:14:28;;;;;;;;;;;11.50;99.90;11.80;100894.00;;;;343003;28;87247;-88
2022/11/11 00:14:39;;;;;;;;;;;11.50;99.90;11.80;100904.00;;;;341904;28;89580;-88
2022/11/11 00:14:51;;;;;;;;;;;11.50;99.90;11.80;100909.00;;;;342905;28;87071;-89
2022/11/11 00:15:04;;;;;;;;;;;11.50;99.90;11.80;100906.00;;;;346076;28;88550;-88
2022/11/11 00:15:15;;;;;;;;;;;11.50;99.90;11.80;100907.00;;;;340647;28;86084;-88
2022/11/11 00:15:28;;;;;;;;;;;11.50;99.90;11.90;100898.00;;;;341955;28;88650;-88
2022/11/11 00:15:39;;;;;;;;;;;11.50;99.90;11.80;100909.00;;;;343170;28;86163;-88
2022/11/11 00:15:51;;;;;;;;;;;11.50;99.90;11.90;100906.00;;;;344774;28;87604;-88
2022/11/11 00:16:07;;;;;;;;;;;11.50;99.90;12.00;100903.00;;;;343906;28;85742;-88
2022/11/11 00:16:19;;;;;;;;;;;11.50;99.90;11.90;100902.00;;;;340564;28;90186;-87
2022/11/11 00:25:04;;;;;;;;;;;11.50;99.90;11.90;100908.00;;;;341738;28;87000;-88
2022/11/11 00:25:05;;;;;;;;;;;11.50;99.90;11.70;100909.00;;;;340290;28;86979;-88
2022/11/11 00:25:16;;;;;;;;;;;11.50;99.90;11.70;100906.00;;;;339228;28;88221;-88
2022/11/11 00:25:28;;;;;;;;;;;11.50;99.90;11.70;100901.00;;;;337607;28;86168;-88
2022/11/11 00:25:40;;;;;;;;;;;11.50;99.90;11.70;100904.00;;;;336611;28;87059;-89
2022/11/11 00:25:52;;;;;;;;;;;11.50;99.90;11.70;100899.00;;;;336469;28;86967;-88
2022/11/11 00:26:25;;;;;;;;;;;11.40;99.90;11.80;100907.00;;;;339148;28;89006;-88
2022/11/11 00:26:50;;;;;;;;;;;11.40;99.90;11.80;100911.00;;;;338771;28;86816;-88
2022/11/11 00:27:04;;;;;;;;;;;11.40;99.90;11.80;100914.00;;;;337622;28;91094;-88
2022/11/11 00:27:16;;;;;;;;;;;11.40;99.90;11.80;100906.00;;;;336325;28;87145;-88
2022/11/11 00:27:28;;;;;;;;;;;11.40;99.90;11.80;100909.00;;;;338897;28;90523;-88
2022/11/11 00:27:40;;;;;;;;;;;11.40;99.90;11.70;100906.00;;;;337629;28;87093;-87
2022/11/11 00:27:52;;;;;;;;;;;11.40;99.90;11.60;100908.00;;;;337781;28;88877;-88
2022/11/11 00:28:04;;;;;;;;;;;11.40;99.90;11.60;100907.00;;;;340411;28;86805;-89
2022/11/11 00:28:16;;;;;;;;;;;11.40;99.90;11.60;100913.00;;;;340204;28;89968;-88
2022/11/11 00:28:28;;;;;;;;;;;11.40;99.90;11.60;100906.00;;;;338824;28;87169;-87
2022/11/11 00:28:40;;;;;;;;;;;11.40;99.90;11.80;100903.00;;;;339141;28;89614;-88
2022/11/11 00:28:52;;;;;;;;;;;11.40;99.90;11.70;100905.00;;;;341199;28;87075;-89
2022/11/11 00:29:04;;;;;;;;;;;11.40;99.90;11.70;100904.00;;;;340402;28;85910;-88
2022/11/11 00:29:16;;;;;;;;;;;11.40;99.90;11.70;100912.00;;;;337042;28;87168;-89
2022/11/11 00:29:28;;;;;;;;;;;11.40;99.90;11.60;100912.00;;;;339040;28;89643;-88
2022/11/11 00:29:40;;;;;;;;;;;11.40;99.90;11.60;100896.00;;;;336042;28;88408;-88
2022/11/11 00:29:51;;;;;;;;;;;11.40;99.90;11.60;100906.00;;;;335245;28;90260;-88
2022/11/11 00:30:03;;;;;;;;;;;11.40;99.90;11.60;100909.00;;;;336183;28;86333;-88
2022/11/11 00:30:15;;;;;;;;;;;11.40;99.90;11.60;100900.00;;;;337657;28;90421;-88
2022/11/11 00:30:27;;;;;;;;;;;11.40;99.90;11.50;100906.00;;;;337609;28;86920;-88
2022/11/11 00:30:39;;;;;;;;;;;11.30;99.90;11.50;100904.00;;;;340510;28;88791;-88
2022/11/11 00:30:50;;;;;;;;;;;11.30;99.90;11.50;100909.00;;;;338694;28;87024;-89
2022/11/11 00:31:03;;;;;;;;;;;11.30;99.90;11.50;100910.00;;;;336593;28;88617;-88
2022/11/11 00:31:15;;;;;;;;;;;11.30;99.90;11.60;100910.00;;;;338952;28;86978;-88
2022/11/11 00:31:27;;;;;;;;;;;11.30;99.90;11.50;100905.00;;;;337871;28;88316;-88
2022/11/11 00:32:21;;;;;;;;;;;11.30;99.90;11.50;100909.00;;;;337564;28;87102;-88
2022/11/11 00:32:23;;;;;;;;;;;11.30;99.90;11.50;100904.00;;;;336513;28;88713;-88
2022/11/11 00:32:35;;;;;;;;;;;11.30;99.90;11.60;100910.00;;;;337750;28;86169;-88
2022/11/11 00:32:47;;;;;;;;;;;11.30;99.90;11.60;100909.00;;;;337430;28;88519;-87
2022/11/11 00:32:58;;;;;;;;;;;11.30;99.90;11.60;100908.00;;;;337736;28;86881;-88
2022/11/11 00:33:10;;;;;;;;;;;11.30;99.90;11.60;100909.00;;;;337984;28;87112;-88
2022/11/11 00:33:22;;;;;;;;;;;11.30;99.90;11.60;100916.00;;;;336260;28;86972;-88
2022/11/11 00:33:34;;;;;;;;;;;11.30;99.90;11.60;100909.00;;;;338901;28;90042;-88
2022/11/11 00:33:45;;;;;;;;;;;11.30;99.90;11.50;100918.00;;;;338781;28;86976;-88
2022/11/11 00:33:57;;;;;;;;;;;11.30;99.90;11.50;100914.00;;;;336640;28;88423;-88
2022/11/11 00:34:09;;;;;;;;;;;11.30;99.90;11.50;100909.00;;;;338908;28;86196;-89
2022/11/11 00:34:21;;;;;;;;;;;11.30;99.90;11.50;100914.00;;;;339187;28;87877;-88
2022/11/11 00:34:33;;;;;;;;;;;11.30;99.90;11.50;100917.00;;;;338933;28;86127;-88
2022/11/11 00:35:51;;;;;;;;;;;11.30;99.90;11.50;100908.00;;;;337668;28;86720;-88
2022/11/11 00:35:52;;;;;;;;;;;11.30;99.90;11.60;100917.00;;;;337380;28;86482;-88
2022/11/11 00:36:05;;;;;;;;;;;11.30;99.90;11.60;100915.00;;;;338981;28;86693;-88
2022/11/11 00:36:18;;;;;;;;;;;11.30;99.90;11.60;100909.00;;;;340487;28;86689;-88
2022/11/11 00:36:29;;;;;;;;;;;11.30;99.90;11.60;100915.00;;;;336061;28;87263;-88
2022/11/11 00:36:41;;;;;;;;;;;11.30;99.90;11.60;100918.00;;;;340472;28;88779;-88
2022/11/11 00:36:55;;;;;;;;;;;11.30;99.90;11.50;100911.00;;;;335953;28;87086;-88
2022/11/11 00:37:07;;;;;;;;;;;11.30;99.90;11.50;100915.00;;;;335190;29;89572;-88
2022/11/11 00:37:18;;;;;;;;;;;11.30;99.90;11.60;100909.00;;;;340354;28;86285;-88
2022/11/11 00:37:31;;;;;;;;;;;11.30;99.90;11.60;100915.00;;;;339070;28;90135;-88
2022/11/11 00:37:45;;;;;;;;;;;11.30;99.90;11.60;100917.00;;;;338974;28;86791;-88
2022/11/11 00:38:03;;;;;;;;;;;11.30;99.90;11.60;100921.00;;;;336107;28;91077;-88
2022/11/11 00:38:44;;;;;;;;;;;11.30;99.90;11.50;100918.00;;;;336216;28;86185;-88
2022/11/11 00:38:46;;;;;;;;;;;11.30;99.90;11.50;100914.00;;;;338930;28;90934;-87
2022/11/11 00:38:58;;;;;;;;;;;11.30;99.90;11.50;100910.00;;;;338896;28;86845;-88
2022/11/11 00:39:10;;;;;;;;;;;11.30;99.90;11.40;100911.00;;;;340523;28;87058;-88
2022/11/11 00:39:22;;;;;;;;;;;11.30;99.90;11.40;100911.00;;;;338850;28;88556;-88
2022/11/11 00:39:34;;;;;;;;;;;11.20;99.90;11.40;100911.00;;;;339072;28;88264;-88
2022/11/11 00:39:45;;;;;;;;;;;11.20;99.90;11.40;100916.00;;;;340384;28;85332;-88
2022/11/11 00:39:57;;;;;;;;;;;11.20;99.90;11.40;100916.00;;;;337882;28;88211;-88
2022/11/11 00:40:09;;;;;;;;;;;11.20;99.90;11.30;100919.00;;;;338723;28;87965;-88
2022/11/11 00:40:21;;;;;;;;;;;11.20;99.90;11.30;100908.00;;;;339113;28;90206;-88
2022/11/11 00:40:33;;;;;;;;;;;11.20;99.90;11.30;100907.00;;;;338897;28;87102;-88
2022/11/11 00:40:45;;;;;;;;;;;11.20;99.90;11.30;100904.00;;;;339141;28;88518;-88
2022/11/11 00:40:58;;;;;;;;;;;11.10;99.90;11.50;100906.00;;;;338884;28;87838;-88
2022/11/11 00:41:13;;;;;;;;;;;11.20;99.90;11.50;100904.00;;;;336359;28;89903;-88
2022/11/11 00:41:26;;;;;;;;;;;11.20;99.90;11.50;100914.00;;;;338740;28;87436;-88
2022/11/11 00:41:38;;;;;;;;;;;11.20;99.90;11.50;100908.00;;;;337533;28;87556;-88
2022/11/11 00:41:49;;;;;;;;;;;11.20;99.90;11.40;100909.00;;;;337380;28;88046;-88
2022/11/11 00:42:01;;;;;;;;;;;11.20;99.90;11.40;100907.00;;;;336475;28;90393;-88
2022/11/11 00:42:13;;;;;;;;;;;11.20;99.90;11.30;100913.00;;;;340133;28;87239;-88
2022/11/11 00:42:25;;;;;;;;;;;11.10;99.90;11.30;100917.00;;;;337907;28;87070;-88
2022/11/11 00:42:37;;;;;;;;;;;11.10;99.90;11.30;100898.00;;;;339047;28;86402;-88
2022/11/11 00:42:49;;;;;;;;;;;11.10;99.90;11.40;100911.00;;;;340459;28;87778;-88
2022/11/11 00:43:01;;;;;;;;;;;11.10;99.90;11.40;100906.00;;;;338923;28;86671;-88
2022/11/11 00:43:12;;;;;;;;;;;11.10;99.90;11.40;100908.00;;;;336588;28;90089;-88
2022/11/11 00:43:24;;;;;;;;;;;11.10;99.90;11.30;100898.00;;;;337612;28;86079;-88
2022/11/11 00:43:36;;;;;;;;;;;11.10;99.90;11.30;100910.00;;;;341566;28;90168;-88
2022/11/11 00:43:48;;;;;;;;;;;11.10;99.90;11.40;100907.00;;;;338471;28;88122;-88
2022/11/11 00:43:59;;;;;;;;;;;11.10;99.90;11.40;100917.00;;;;336677;28;88221;-88
2022/11/11 00:44:11;;;;;;;;;;;11.10;99.90;11.40;100913.00;;;;340224;28;86934;-88
2022/11/11 00:44:23;;;;;;;;;;;11.10;99.90;11.40;100923.00;;;;337790;28;87616;-88
2022/11/11 00:44:35;;;;;;;;;;;11.10;99.90;11.40;100917.00;;;;337447;28;87551;-88
2022/11/11 00:44:46;;;;;;;;;;;11.10;99.90;11.40;100912.00;;;;339144;28;88799;-88
2022/11/11 00:44:58;;;;;;;;;;;11.10;99.90;11.40;100923.00;;;;338819;28;86162;-88
2022/11/11 00:45:10;;;;;;;;;;;11.10;99.90;11.50;100911.00;;;;338780;28;86828;-88
2022/11/11 00:45:22;;;;;;;;;;;11.20;99.90;11.50;100921.00;;;;336380;28;86017;-88
2022/11/11 00:45:34;;;;;;;;;;;11.20;99.90;11.40;100916.00;;;;337847;28;85984;-88
2022/11/11 00:45:46;;;;;;;;;;;11.10;99.90;11.50;100913.00;;;;338804;28;87814;-88
2022/11/11 00:50:57;;;;;;;;;;;11.20;99.90;11.50;100917.00;;;;340388;28;90657;-88
2022/11/11 00:50:57;;;;;;;;;;;11.20;99.90;11.60;100923.00;;;;339241;28;86913;-90
2022/11/11 00:51:09;;;;;;;;;;;11.20;99.90;11.60;100923.00;;;;338202;28;86930;-90
2022/11/11 00:51:21;;;;;;;;;;;11.20;99.90;11.60;100920.00;;;;338993;28;87083;-90
2022/11/11 00:51:33;;;;;;;;;;;11.20;99.90;11.60;100923.00;;;;337660;28;91489;-90
2022/11/11 00:51:45;;;;;;;;;;;11.20;99.90;11.60;100916.00;;;;337699;28;88118;-90
2022/11/11 00:51:57;;;;;;;;;;;11.20;99.90;11.60;100921.00;;;;336599;28;90881;-90
2022/11/11 00:52:08;;;;;;;;;;;11.20;99.90;11.50;100923.00;;;;339117;28;86002;-90
2022/11/11 00:52:20;;;;;;;;;;;11.20;99.90;11.50;100915.00;;;;339382;28;88424;-90
2022/11/11 00:52:32;;;;;;;;;;;11.20;99.90;11.50;100921.00;;;;338967;28;86092;-90
2022/11/11 00:52:46;;;;;;;;;;;11.20;99.90;11.50;100923.00;;;;339377;28;87140;-90
2022/11/11 00:52:58;;;;;;;;;;;11.20;99.90;11.60;100922.00;;;;339004;28;86348;-90
2022/11/11 00:53:12;;;;;;;;;;;11.20;99.90;11.60;100920.00;;;;337895;28;90180;-90
2022/11/11 00:53:26;;;;;;;;;;;11.20;99.90;11.70;100918.00;;;;340586;28;86166;-90
2022/11/11 00:53:39;;;;;;;;;;;11.20;99.90;11.60;100915.00;;;;339049;28;89798;-90
2022/11/11 00:53:51;;;;;;;;;;;11.20;99.90;11.60;100924.00;;;;335321;29;86211;-90
2022/11/11 00:54:03;;;;;;;;;;;11.20;99.90;11.60;100918.00;;;;337934;28;89938;-90
2022/11/11 00:54:14;;;;;;;;;;;11.20;99.90;11.60;100922.00;;;;340666;28;87058;-90
2022/11/11 00:54:26;;;;;;;;;;;11.20;99.90;11.70;100923.00;;;;335607;29;89183;-90
2022/11/11 00:54:38;;;;;;;;;;;11.20;99.90;11.70;100914.00;;;;338002;28;86949;-90
2022/11/11 00:54:50;;;;;;;;;;;11.30;99.90;11.60;100919.00;;;;340572;28;89865;-91
2022/11/11 00:55:02;;;;;;;;;;;11.30;99.90;11.70;100920.00;;;;339346;28;85890;-90
2022/11/11 00:55:14;;;;;;;;;;;11.30;99.90;11.70;100921.00;;;;336941;28;87924;-90
2022/11/11 00:55:26;;;;;;;;;;;11.30;99.90;11.70;100918.00;;;;339326;28;86047;-90
2022/11/11 00:55:37;;;;;;;;;;;11.30;99.90;11.60;100915.00;;;;337912;28;89304;-90
2022/11/11 00:55:49;;;;;;;;;;;11.30;99.90;11.60;100917.00;;;;337745;28;86873;-89
2022/11/11 00:56:01;;;;;;;;;;;11.30;99.90;11.60;100928.00;;;;339331;28;91234;-91
2022/11/11 00:56:13;;;;;;;;;;;11.30;99.90;11.60;100920.00;;;;336346;28;87659;-90
2022/11/11 00:56:24;;;;;;;;;;;11.30;99.90;11.70;100913.00;;;;339437;28;88893;-90
2022/11/11 00:56:36;;;;;;;;;;;11.30;99.90;11.70;100918.00;;;;338956;28;86191;-90
2022/11/11 00:56:48;;;;;;;;;;;11.30;99.90;11.80;100918.00;;;;338134;28;87563;-90
2022/11/11 00:57:00;;;;;;;;;;;11.30;99.90;11.80;100922.00;;;;339610;28;86322;-90
2022/11/11 00:57:11;;;;;;;;;;;11.30;99.90;11.80;100919.00;;;;340347;28;88819;-90
2022/11/11 00:57:23;;;;;;;;;;;11.30;99.90;11.70;100917.00;;;;340000;28;87801;-90
2022/11/11 00:57:35;;;;;;;;;;;11.30;99.90;11.70;100915.00;;;;340277;28;91466;-90
2022/11/11 00:57:46;;;;;;;;;;;11.30;99.90;11.80;100916.00;;;;338903;28;88881;-90
2022/11/11 00:57:58;;;;;;;;;;;11.30;99.90;11.70;100922.00;;;;339107;28;88696;-90
2022/11/11 00:58:10;;;;;;;;;;;11.30;99.90;11.70;100913.00;;;;338790;28;86839;-90
2022/11/11 00:58:22;;;;;;;;;;;11.30;99.90;11.70;100919.00;;;;339040;28;91258;-91
2022/11/11 00:58:35;;;;;;;;;;;11.30;99.90;11.70;100922.00;;;;337536;28;86045;-90
2022/11/11 00:58:46;;;;;;;;;;;11.30;99.90;11.70;100916.00;;;;339018;28;88611;-90
2022/11/11 00:58:58;;;;;;;;;;;11.30;99.90;11.60;100920.00;;;;340290;28;85600;-90
2022/11/11 00:59:10;;;;;;;;;;;11.30;99.90;11.60;100920.00;;;;337769;28;87407;-90
2022/11/11 00:59:22;;;;;;;;;;;11.30;99.90;11.60;100923.00;;;;340130;28;88447;-90
2022/11/11 00:59:34;;;;;;;;;;;11.30;99.90;11.70;100926.00;;;;338932;28;88473;-90
2022/11/11 00:59:46;;;;;;;;;;;11.30;99.90;11.70;100923.00;;;;338967;28;86919;-90
2022/11/11 00:59:57;;;;;;;;;;;11.30;99.90;11.80;100923.00;;;;340342;28;90286;-90
2022/11/11 01:00:10;;;;;;;;;;;11.30;99.90;11.70;100916.00;;;;337580;28;86963;-91
2022/11/11 01:00:21;;;;;;;;;;;11.30;99.90;11.80;100919.00;;;;340447;28;90345;-90
2022/11/11 01:00:33;;;;;;;;;;;11.30;99.90;11.80;100917.00;;;;340426;28;86879;-90
2022/11/11 01:00:45;;;;;;;;;;;11.30;99.90;11.70;100911.00;;;;336510;28;89955;-90
2022/11/11 01:00:57;;;;;;;;;;;11.30;99.90;11.70;100920.00;;;;334992;29;86771;-90
2022/11/11 01:01:09;;;;;;;;;;;11.30;99.90;11.60;100926.00;;;;337866;28;88744;-90
2022/11/11 01:01:20;;;;;;;;;;;11.30;99.90;11.60;100920.00;;;;339171;28;86889;-89
2022/11/11 01:01:33;;;;;;;;;;;11.30;99.90;11.60;100921.00;;;;337808;28;90956;-90
2022/11/11 01:01:45;;;;;;;;;;;11.30;99.90;11.60;100920.00;;;;338874;28;87130;-90
2022/11/11 01:01:57;;;;;;;;;;;11.30;99.90;11.60;100920.00;;;;341860;28;89813;-90
2022/11/11 01:02:09;;;;;;;;;;;11.30;99.90;11.70;100908.00;;;;343278;28;87006;-90
2022/11/11 01:02:21;;;;;;;;;;;11.30;99.90;11.60;100921.00;;;;342043;28;90644;-90
2022/11/11 01:02:33;;;;;;;;;;;11.40;99.90;11.60;100914.00;;;;341944;28;86837;-91
2022/11/11 01:02:44;;;;;;;;;;;11.30;99.90;11.60;100913.00;;;;343312;28;90024;-90
2022/11/11 01:02:57;;;;;;;;;;;11.30;99.90;11.60;100924.00;;;;341674;28;86950;-90
2022/11/11 01:03:09;;;;;;;;;;;11.30;99.90;11.60;100919.00;;;;339456;28;88054;-90
2022/11/11 01:03:21;;;;;;;;;;;11.30;99.90;11.50;100923.00;;;;342051;28;86059;-90
2022/11/11 01:03:34;;;;;;;;;;;11.30;99.90;11.50;100919.00;;;;343475;28;88648;-89
2022/11/11 01:03:45;;;;;;;;;;;11.30;99.90;11.50;100921.00;;;;341901;28;86761;-90
2022/11/11 01:03:58;;;;;;;;;;;11.30;99.90;11.40;100913.00;;;;342194;28;87671;-90
2022/11/11 01:04:10;;;;;;;;;;;11.30;99.90;11.50;100921.00;;;;339050;28;87665;-90
2022/11/11 01:04:22;;;;;;;;;;;11.20;99.90;11.40;100921.00;;;;343430;28;88826;-90
2022/11/11 01:04:33;;;;;;;;;;;11.20;99.90;11.40;100925.00;;;;344588;28;86084;-90
2022/11/11 01:04:45;;;;;;;;;;;11.20;99.90;11.40;100924.00;;;;343126;28;88787;-90
2022/11/11 01:04:57;;;;;;;;;;;11.20;99.90;11.50;100926.00;;;;344194;28;87357;-90
2022/11/11 01:05:09;;;;;;;;;;;11.20;99.90;11.50;100929.00;;;;341887;28;90692;-90
2022/11/11 01:05:20;;;;;;;;;;;11.20;99.90;11.50;100922.00;;;;342657;28;87081;-89
2022/11/11 01:05:32;;;;;;;;;;;11.20;99.90;11.50;100930.00;;;;343233;28;88659;-89
2022/11/11 01:05:44;;;;;;;;;;;11.20;99.90;11.50;100922.00;;;;342970;28;86983;-90
2022/11/11 01:05:59;;;;;;;;;;;11.20;99.90;11.50;100930.00;;;;342847;28;87214;-91
2022/11/11 01:06:12;;;;;;;;;;;11.20;99.90;11.50;100928.00;;;;343149;28;86025;-90
2022/11/11 01:06:23;;;;;;;;;;;11.20;99.90;11.50;100924.00;;;;343393;28;88593;-90
2022/11/11 01:06:35;;;;;;;;;;;11.20;99.90;11.50;100925.00;;;;340292;28;86177;-91
2022/11/11 01:06:47;;;;;;;;;;;11.20;99.90;11.50;100927.00;;;;339382;28;85982;-89
2022/11/11 01:06:59;;;;;;;;;;;11.20;99.90;11.50;100927.00;;;;344511;28;86174;-90
2022/11/11 01:07:11;;;;;;;;;;;11.20;99.90;11.50;100934.00;;;;343247;28;89048;-90
2022/11/11 01:07:23;;;;;;;;;;;11.20;99.90;11.50;100932.00;;;;341496;28;88747;-90
2022/11/11 01:07:35;;;;;;;;;;;11.20;99.90;11.50;100928.00;;;;342912;28;89046;-90
2022/11/11 01:07:49;;;;;;;;;;;11.20;99.90;11.50;100927.00;;;;343106;28;85960;-90
2022/11/11 01:08:01;;;;;;;;;;;11.20;99.90;11.50;100936.00;;;;340559;28;88751;-90
2022/11/11 01:08:13;;;;;;;;;;;11.20;99.90;11.50;100932.00;;;;340166;28;86753;-91
2022/11/11 01:08:25;;;;;;;;;;;11.20;99.90;11.40;100937.00;;;;341919;28;88099;-90
2022/11/11 01:08:37;;;;;;;;;;;11.20;99.90;11.40;100924.00;;;;340309;28;85947;-90
2022/11/11 01:08:49;;;;;;;;;;;11.20;99.90;11.40;100926.00;;;;341635;28;87313;-90
2022/11/11 01:09:05;;;;;;;;;;;11.20;99.90;11.40;100924.00;;;;341526;28;87919;-90
2022/11/11 01:09:17;;;;;;;;;;;11.10;99.90;11.50;100936.00;;;;341861;28;88367;-90
2022/11/11 01:09:28;;;;;;;;;;;11.10;99.90;11.50;100927.00;;;;341581;28;86923;-89
2022/11/11 01:09:40;;;;;;;;;;;11.10;99.90;11.60;100932.00;;;;340506;28;88997;-90
2022/11/11 01:09:52;;;;;;;;;;;11.10;99.90;11.60;100928.00;;;;342774;28;87021;-90
2022/11/11 01:10:04;;;;;;;;;;;11.10;99.90;11.50;100925.00;;;;344465;28;89516;-90
2022/11/11 01:10:37;;;;;;;;;;;11.10;99.90;11.40;100933.00;;;;343048;28;85915;-90
2022/11/11 01:10:49;;;;;;;;;;;11.20;99.90;11.40;100931.00;;;;344339;28;91663;-90
2022/11/11 01:11:00;;;;;;;;;;;11.20;99.90;11.50;100931.00;;;;342906;28;86946;-90
2022/11/11 01:11:17;;;;;;;;;;;11.10;99.90;11.40;100931.00;;;;340551;28;88999;-90
2022/11/11 01:11:29;;;;;;;;;;;11.20;99.90;11.40;100926.00;;;;341478;28;86388;-89
2022/11/11 01:11:41;;;;;;;;;;;11.20;99.90;11.50;100928.00;;;;341936;28;87758;-90
2022/11/11 01:11:53;;;;;;;;;;;11.10;99.90;11.60;100934.00;;;;341726;28;86820;-90
2022/11/11 01:12:05;;;;;;;;;;;11.20;99.90;11.60;100931.00;;;;340571;28;87841;-90
2022/11/11 01:12:17;;;;;;;;;;;11.20;99.90;11.50;100926.00;;;;338893;28;87160;-90
2022/11/11 01:12:28;;;;;;;;;;;11.20;99.90;11.50;100939.00;;;;340432;28;89644;-90
2022/11/11 01:12:40;;;;;;;;;;;11.20;99.90;11.50;100931.00;;;;344209;28;86021;-90
2022/11/11 01:13:10;;;;;;;;;;;11.20;99.90;11.50;100927.00;;;;343167;28;88760;-89
2022/11/11 01:13:26;;;;;;;;;;;11.20;99.90;11.60;100927.00;;;;341598;28;87069;-90
2022/11/11 01:13:38;;;;;;;;;;;11.20;99.90;11.70;100930.00;;;;340399;28;89924;-90
2022/11/11 01:13:50;;;;;;;;;;;11.20;99.90;11.60;100930.00;;;;341433;28;87414;-90
2022/11/11 01:14:02;;;;;;;;;;;11.20;99.90;11.50;100935.00;;;;341969;28;87173;-90
2022/11/11 01:14:13;;;;;;;;;;;11.20;99.90;11.50;100933.00;;;;342691;28;87736;-90
2022/11/11 01:14:25;;;;;;;;;;;11.20;99.90;11.60;100933.00;;;;343292;28;88915;-90
2022/11/11 01:14:37;;;;;;;;;;;11.20;99.90;11.70;100939.00;;;;341600;28;87138;-89
2022/11/11 01:14:49;;;;;;;;;;;11.20;99.90;11.60;100928.00;;;;339233;28;87295;-90
2022/11/11 01:15:00;;;;;;;;;;;11.20;99.90;11.60;100929.00;;;;340271;28;87014;-90
2022/11/11 01:15:12;;;;;;;;;;;11.20;99.90;11.50;100933.00;;;;343299;28;88463;-89
2022/11/11 01:15:24;;;;;;;;;;;11.20;99.90;11.60;100935.00;;;;341577;28;86982;-90